KMLU/MLU METAR and TAF weather

Enter ICAO airport designator
Station Type Date Time Source
KMLU METAR 2019/10/23 19:53 UTC NOAA

KMLU 231953Z 16006G14KT 10SM CLR 23/04 A3012 RMK AO2 SLP198 T02330044


Station Type Date Time Source
KMLU Decoded METAR 2019/10/23 19:53 UTC NOAA

MONROE REGIONAL AIRPORT, LA, United States (KMLU) 32-31N 092-02W 29M
Oct 23, 2019 - 03:53 PM EDT / 2019.10.23 1953 UTC
Wind: from the SSE (160 degrees) at 7 MPH (6 KT) gusting to 16 MPH (14 KT):0
Visibility: 10 mile(s):0
Sky conditions: clear
Temperature: 73.9 F (23.3 C)
Dew Point: 39.9 F (4.4 C)
Relative Humidity: 29%
Pressure (altimeter): 30.12 in. Hg (1019 hPa)
ob: KMLU 231953Z 16006G14KT 10SM CLR 23/04 A3012 RMK AO2 SLP198 T02330044
cycle: 20

Station Type Date Time Source
KMLU TAF 2019/10/23 18:21 UTC NOAA

TAF KMLU 231720Z 2318/2418 19009KT P6SM SKC
FM240000 00000KT P6SM SKC

Example: see airport list